createdAt,value
2018-04-22T00:00:43.948Z,64.51
2018-04-22T00:05:44.952Z,63.56
2018-04-22T00:10:45.936Z,64.43
2018-04-22T00:15:46.901Z,63.49
2018-04-22T00:20:47.898Z,63.11
2018-04-22T00:25:48.867Z,64.74
2018-04-22T00:30:49.820Z,63.77
2018-04-22T00:35:50.772Z,64.67
2018-04-22T00:40:51.767Z,65.31
2018-04-22T00:45:52.735Z,64.12
2018-04-22T00:50:53.766Z,64.53
2018-04-22T00:55:54.753Z,64.61
2018-04-22T01:00:55.695Z,65.16
2018-04-22T01:05:56.701Z,66.33
2018-04-22T01:10:57.683Z,65.89
2018-04-22T01:15:58.632Z,64.64
2018-04-22T01:20:59.642Z,66.78
2018-04-22T01:26:00.615Z,65.21
2018-04-22T01:31:01.591Z,63.21
2018-04-22T01:36:02.577Z,64.35
2018-04-22T01:41:03.549Z,65.63
2018-04-22T01:46:04.514Z,67.04
2018-04-22T01:51:05.472Z,65.01
2018-04-22T01:56:06.441Z,66.28
2018-04-22T02:01:07.402Z,66.78
2018-04-22T02:06:08.420Z,66.34
2018-04-22T02:11:09.387Z,64.51
2018-04-22T02:16:10.366Z,65.34
2018-04-22T02:21:11.335Z,66.24
2018-04-22T02:26:12.324Z,65.52
2018-04-22T02:31:13.284Z,64.29
2018-04-22T02:36:14.236Z,65.03
2018-04-22T02:41:15.200Z,66.95
2018-04-22T02:46:16.156Z,65.53
2018-04-22T02:51:17.237Z,66.47
2018-04-22T02:56:18.195Z,70.10
2018-04-22T03:01:19.156Z,69.35
2018-04-22T03:06:20.171Z,67.69
2018-04-22T03:11:21.127Z,69.64
2018-04-22T03:16:22.082Z,70.41
2018-04-22T03:21:23.057Z,69.75
2018-04-22T03:26:24.025Z,70.25
2018-04-22T03:31:24.969Z,74.34
2018-04-22T03:36:25.913Z,76.34
2018-04-22T03:41:26.885Z,76.10
2018-04-22T03:46:27.860Z,75.27
2018-04-22T03:51:28.823Z,72.36
2018-04-22T03:56:29.799Z,70.79
2018-04-22T04:01:30.756Z,72.62
2018-04-22T04:06:31.711Z,72.03
2018-04-22T04:11:32.677Z,75.31
2018-04-22T04:16:33.664Z,75.82
2018-04-22T04:21:46.873Z,74.12
2018-04-22T04:27:00.208Z,74.43
2018-04-22T04:32:01.979Z,75.16
2018-04-22T04:37:02.923Z,72.60
2018-04-22T04:42:03.902Z,70.20
2018-04-22T04:47:04.844Z,73.81
2018-04-22T04:52:05.815Z,72.02
2018-04-22T04:57:06.796Z,75.11
2018-04-22T05:02:07.751Z,71.63
2018-04-22T05:07:08.709Z,70.16
2018-04-22T05:12:09.654Z,69.66
2018-04-22T05:17:10.613Z,69.31
2018-04-22T05:22:11.597Z,69.82
2018-04-22T05:27:12.557Z,68.18
2018-04-22T05:32:13.509Z,67.26
2018-04-22T05:37:14.469Z,69.11
2018-04-22T05:42:15.427Z,69.82
2018-04-22T05:47:16.384Z,68.74
2018-04-22T05:52:17.392Z,67.48
2018-04-22T05:57:18.359Z,69.19
2018-04-22T06:02:19.336Z,68.25
2018-04-22T06:07:20.309Z,69.96
2018-04-22T06:12:21.265Z,74.24
2018-04-22T06:17:22.285Z,70.51
2018-04-22T06:22:23.286Z,67.85
2018-04-22T06:27:24.262Z,68.54
2018-04-22T06:32:25.226Z,66.70
2018-04-22T06:37:26.201Z,68.15
2018-04-22T06:42:27.173Z,69.98
2018-04-22T06:47:28.159Z,74.59
2018-04-22T06:52:29.124Z,69.99
2018-04-22T06:57:30.094Z,68.28
2018-04-22T07:02:31.077Z,69.14
2018-04-22T07:07:32.055Z,71.04
2018-04-22T07:12:33.042Z,69.53
2018-04-22T07:17:34.017Z,70.00
2018-04-22T07:22:35.037Z,66.27
2018-04-22T07:27:36.024Z,70.13
2018-04-22T07:32:36.959Z,67.38
2018-04-22T07:37:37.937Z,64.13
2018-04-22T07:42:38.917Z,62.36
2018-04-22T07:47:39.887Z,62.15
2018-04-22T07:52:40.875Z,60.84
2018-04-22T07:57:41.855Z,63.91
2018-04-22T08:02:42.845Z,59.78
2018-04-22T08:07:43.847Z,58.53
2018-04-22T08:12:44.844Z,58.36
2018-04-22T08:17:45.825Z,56.34
2018-04-22T08:22:46.840Z,55.39
2018-04-22T08:27:47.816Z,53.95
2018-04-22T08:32:48.803Z,54.97
2018-04-22T08:37:49.776Z,55.84
2018-04-22T08:42:50.775Z,53.27
2018-04-22T08:47:51.776Z,55.76
2018-04-22T08:52:52.735Z,54.18
2018-04-22T08:57:53.717Z,53.03
2018-04-22T09:02:54.729Z,52.55
2018-04-22T09:07:55.724Z,54.11
2018-04-22T09:12:56.693Z,53.00
2018-04-22T09:17:57.684Z,53.32
2018-04-22T09:22:58.708Z,51.28
2018-04-22T09:27:59.733Z,51.53
2018-04-22T09:33:00.680Z,52.93
2018-04-22T09:38:01.664Z,50.50
2018-04-22T09:43:02.705Z,50.98
2018-04-22T09:48:03.647Z,52.14
2018-04-22T09:53:04.615Z,44.76
2018-04-22T09:58:05.569Z,44.69
2018-04-22T10:03:06.562Z,45.88
2018-04-22T10:08:07.560Z,43.03
2018-04-22T10:13:08.552Z,43.80
2018-04-22T10:18:09.544Z,43.30
2018-04-22T10:23:10.556Z,39.83
2018-04-22T10:28:11.531Z,43.35
2018-04-22T10:33:12.507Z,41.91
2018-04-22T10:38:13.501Z,43.85
2018-04-22T10:43:14.478Z,41.78
2018-04-22T10:48:15.455Z,42.21
2018-04-22T10:53:16.419Z,43.36
2018-04-22T10:58:17.429Z,41.03
2018-04-22T11:03:18.407Z,41.06
2018-04-22T11:08:19.424Z,39.60
2018-04-22T11:13:20.427Z,40.24
2018-04-22T11:18:21.404Z,40.77
2018-04-22T11:23:22.451Z,40.66
2018-04-22T11:28:23.461Z,37.82
2018-04-22T11:33:24.451Z,38.64
2018-04-22T11:38:25.420Z,37.33
2018-04-22T11:43:26.426Z,35.78
2018-04-22T11:48:27.426Z,32.43
2018-04-22T11:53:28.434Z,33.53
2018-04-22T11:58:29.398Z,32.80
2018-04-22T12:03:30.363Z,26.35
2018-04-22T12:08:31.342Z,25.58
2018-04-22T12:13:32.353Z,30.63
2018-04-22T12:18:33.363Z,25.71
2018-04-22T12:23:34.384Z,26.29
2018-04-22T12:28:35.388Z,26.69
2018-04-22T12:33:36.415Z,31.66
2018-04-22T12:38:37.388Z,23.82
2018-04-22T12:43:38.376Z,27.92
2018-04-22T12:48:39.361Z,33.79
2018-04-22T12:53:40.331Z,35.39
2018-04-22T12:58:41.291Z,36.48
2018-04-22T13:03:42.271Z,36.40
2018-04-22T13:08:43.253Z,37.08
2018-04-22T13:13:44.248Z,37.32
2018-04-22T13:18:45.224Z,37.22
2018-04-22T13:23:46.224Z,36.17
2018-04-22T13:28:47.231Z,36.11
2018-04-22T13:33:48.228Z,35.52
2018-04-22T13:38:49.220Z,35.77
2018-04-22T13:43:50.191Z,34.40
2018-04-22T13:48:51.147Z,34.14
2018-04-22T13:53:52.155Z,33.29
2018-04-22T13:58:53.120Z,33.32
2018-04-22T14:03:54.099Z,32.12
2018-04-22T14:08:55.088Z,31.78
2018-04-22T14:13:56.097Z,32.24
2018-04-22T14:18:57.100Z,30.69
2018-04-22T14:23:58.159Z,32.63
2018-04-22T14:28:59.149Z,34.66
2018-04-22T14:34:00.145Z,34.04
2018-04-22T14:39:01.200Z,33.79
2018-04-22T14:44:14.591Z,32.38
2018-04-22T14:49:15.596Z,31.33
2018-04-22T14:54:16.659Z,30.70
2018-04-22T14:59:17.607Z,30.76
2018-04-22T15:04:18.640Z,30.55
2018-04-22T15:09:19.642Z,31.87
2018-04-22T15:14:20.630Z,32.79
2018-04-22T15:19:21.595Z,34.34
2018-04-22T15:24:22.616Z,34.08
2018-04-22T15:29:23.630Z,33.42
2018-04-22T15:34:24.632Z,33.84
2018-04-22T15:39:25.642Z,34.29
2018-04-22T15:44:26.636Z,32.47
2018-04-22T15:49:27.665Z,31.76
2018-04-22T15:54:28.665Z,31.59
2018-04-22T15:59:29.680Z,30.77
2018-04-22T16:04:30.648Z,34.43
2018-04-22T16:09:31.645Z,32.67
2018-04-22T16:14:32.764Z,30.09
2018-04-22T16:19:33.651Z,29.98
2018-04-22T16:24:34.683Z,31.84
2018-04-22T16:29:35.659Z,32.70
2018-04-22T16:34:36.673Z,32.56
2018-04-22T16:39:37.668Z,31.93
2018-04-22T16:44:38.659Z,31.24
2018-04-22T16:49:39.645Z,32.92
2018-04-22T16:54:40.649Z,34.01
2018-04-22T16:59:41.667Z,34.31
2018-04-22T17:04:42.672Z,33.57
2018-04-22T17:09:43.689Z,33.62
2018-04-22T17:14:44.685Z,34.80
2018-04-22T17:19:45.738Z,34.30
2018-04-22T17:24:46.778Z,35.00
2018-04-22T17:29:47.749Z,36.59
2018-04-22T17:34:48.743Z,38.88
2018-04-22T17:39:49.753Z,40.16
2018-04-22T17:44:50.746Z,40.88
2018-04-22T17:49:51.742Z,42.30
2018-04-22T17:54:52.808Z,42.17
2018-04-22T17:59:53.831Z,41.54
2018-04-22T18:04:54.857Z,42.33
2018-04-22T18:09:55.871Z,43.87
2018-04-22T18:14:56.871Z,42.30
2018-04-22T18:19:57.898Z,43.72
2018-04-22T18:24:58.917Z,43.98
2018-04-22T18:29:59.888Z,44.97
2018-04-22T18:35:00.918Z,44.78
2018-04-22T18:40:01.949Z,46.05
2018-04-22T18:45:03.043Z,46.98
2018-04-22T18:50:04.084Z,45.50
2018-04-22T18:55:05.197Z,46.32
2018-04-22T19:00:06.214Z,46.10
2018-04-22T19:05:07.313Z,46.94
2018-04-22T19:10:08.318Z,45.89
2018-04-22T19:15:09.349Z,46.81
2018-04-22T19:20:10.395Z,45.73
2018-04-22T19:25:11.659Z,44.30
2018-04-22T19:30:12.664Z,45.53
2018-04-22T19:35:13.671Z,44.47
2018-04-22T19:40:14.730Z,45.37
2018-04-22T19:45:15.741Z,45.42
2018-04-22T19:50:16.757Z,46.05
2018-04-22T19:55:17.784Z,49.40
2018-04-22T20:00:18.769Z,49.02
2018-04-22T20:05:19.770Z,49.87
2018-04-22T20:10:20.801Z,50.30
2018-04-22T20:15:21.803Z,51.00
2018-04-22T20:20:22.798Z,51.01
2018-04-22T20:25:23.870Z,50.80
2018-04-22T20:30:24.870Z,51.25
2018-04-22T20:35:25.883Z,50.98
2018-04-22T20:40:26.874Z,51.56
2018-04-22T20:45:27.887Z,51.47
2018-04-22T20:50:28.842Z,51.50
2018-04-22T20:55:29.851Z,50.68
2018-04-22T21:00:30.820Z,51.08
2018-04-22T21:05:31.796Z,50.68
2018-04-22T21:10:32.792Z,49.04
2018-04-22T21:15:33.752Z,48.98
2018-04-22T21:20:34.787Z,49.01
2018-04-22T21:25:35.796Z,53.11
2018-04-22T21:30:36.810Z,50.04
2018-04-22T21:35:37.785Z,48.84
2018-04-22T21:40:38.770Z,49.42
2018-04-22T21:45:39.764Z,48.63
2018-04-22T21:50:40.983Z,50.42
2018-04-22T21:55:42.321Z,50.65
2018-04-22T22:00:43.325Z,56.42
2018-04-22T22:05:44.324Z,66.09
2018-04-22T22:10:46.334Z,71.18
2018-04-22T22:15:47.321Z,71.64
2018-04-22T22:20:48.321Z,70.20
2018-04-22T22:25:49.339Z,71.73
2018-04-22T22:30:50.322Z,72.45
2018-04-22T22:35:51.288Z,73.47
2018-04-22T22:40:52.310Z,74.36
2018-04-22T22:45:53.300Z,76.40
2018-04-22T22:50:54.273Z,77.72
2018-04-22T22:55:55.267Z,75.77
2018-04-22T23:00:56.247Z,77.76
2018-04-22T23:05:57.241Z,76.19
2018-04-22T23:10:58.257Z,77.71
2018-04-22T23:15:59.260Z,76.84
2018-04-22T23:21:00.231Z,79.47
2018-04-22T23:26:01.247Z,78.72
2018-04-22T23:31:02.224Z,77.33
2018-04-22T23:36:03.221Z,77.86
2018-04-22T23:41:04.208Z,77.92
2018-04-22T23:46:05.190Z,81.60
2018-04-22T23:51:06.163Z,82.30
2018-04-22T23:56:07.168Z,81.71
